Gildeskaal — LLDI — position and weather

sailwx.info

Track history (hours):
 
Tides and Currents Weather Stations Pressure Air Temp Water Temp Dewpoint Dewpoint Depression Visibility Wind Speed Wind Dir Waves Ship Positions

Gildeskaal

Last reported at 2016-Apr-28 23:33 UTC. Time now 2016-Apr-28 23:54 UTC.
Position N 67°08' E 013°59'.

Length 52 m; draft 3.2 m.

Type: Ship. MMSI: 259680000.

Date/timePositionNaut miles runAvg speedWind from/ knotsBaromVisibWave heightAir tempDewpointWater temp
2016-Apr-28 23:33N 67°08' E 013°59'0 0.0
2016-Apr-28 22:33N 67°08' E 013°59'0 0.0
2016-Apr-28 21:33N 67°08' E 013°59'0 0.0
2016-Apr-28 20:33N 67°08' E 013°59'0 0.0
2016-Apr-28 19:33N 67°08' E 013°59'4 4.0
2016-Apr-28 18:32N 67°05' E 014°04'3 2.9
2016-Apr-28 17:33N 67°07' E 013°59'2 1.5
2016-Apr-28 16:33N 67°05' E 013°60'3 2.9
2016-Apr-28 15:33N 67°08' E 013°59'3 3.3
2016-Apr-28 14:31N 67°05' E 014°02'0 0.1
2016-Apr-28 13:31N 67°05' E 014°02'4 3.6
2016-Apr-28 12:33N 67°08' E 013°59'0 0.0
2016-Apr-28 11:33N 67°08' E 013°59'3 3.1
2016-Apr-28 10:32N 67°05' E 014°01'1 1.2
2016-Apr-28 09:33N 67°06' E 013°59'2 2.3
2016-Apr-28 08:33N 67°08' E 013°59'2 1.7
2016-Apr-28 07:33N 67°06' E 013°59'3 3.0
2016-Apr-28 06:33N 67°04' E 014°04'1 0.9
2016-Apr-28 05:30N 67°05' E 014°02'3 3.6
2016-Apr-28 04:33N 67°08' E 013°59'0 0.0
2016-Apr-28 03:33N 67°08' E 013°59'0 0.0
2016-Apr-28 02:33N 67°08' E 013°59'0 0.0
2016-Apr-28 01:33N 67°08' E 013°59'0 0.0
2016-Apr-28 00:33N 67°08' E 013°59'0 0.0
2016-Apr-27 23:33N 67°08' E 013°59'0 0.0
2016-Apr-27 22:33N 67°08' E 013°59'0 0.0
2016-Apr-27 21:33N 67°08' E 013°59'0 0.0
2016-Apr-27 20:33N 67°08' E 013°59'0 0.0
2016-Apr-27 19:33N 67°08' E 013°59'4 4.1
2016-Apr-27 18:32N 67°05' E 014°04'3 3.5
2016-Apr-27 17:33N 67°07' E 013°59'2 2.1
2016-Apr-27 16:33N 67°05' E 013°60'3 3.0
2016-Apr-27 15:33N 67°08' E 013°59'3 3.4
2016-Apr-27 14:32N 67°05' E 014°02'0 0.5
2016-Apr-27 13:34N 67°05' E 014°03'4 3.6
2016-Apr-27 12:33N 67°08' E 013°59'0 0.0
2016-Apr-27 11:33N 67°08' E 013°59'3 2.5
2016-Apr-27 10:33N 67°06' E 013°59'0 0.4
2016-Apr-27 09:33N 67°06' E 013°59'2 2.2
2016-Apr-27 08:33N 67°08' E 013°59'3 2.8
2016-Apr-27 07:32N 67°05' E 013°60'2 2.0
2016-Apr-27 06:33N 67°04' E 014°04'1 0.9
2016-Apr-27 05:30N 67°05' E 014°02'3 3.6
2016-Apr-27 04:33N 67°08' E 013°59'0 0.0
2016-Apr-27 03:33N 67°08' E 013°59'0 0.0
2016-Apr-27 02:33N 67°08' E 013°59'0 0.0
2016-Apr-27 01:33N 67°08' E 013°59'0 0.0
2016-Apr-27 00:33N 67°08' E 013°59'0 0.0
2016-Apr-26 23:33N 67°08' E 013°59'0 0.0
2016-Apr-26 22:33N 67°08' E 013°59'0 0.0
2016-Apr-26 21:33N 67°08' E 013°59'0 0.0
2016-Apr-26 20:33N 67°08' E 013°59'0 0.0
2016-Apr-26 19:33N 67°08' E 013°59'3 3.2
2016-Apr-26 18:28N 67°05' E 014°02'2 2.2
2016-Apr-26 17:33N 67°06' E 013°59'1 1.3
2016-Apr-26 16:33N 67°05' E 014°00'3 2.9
2016-Apr-26 15:33N 67°08' E 013°59'3 3.4
2016-Apr-26 14:33N 67°05' E 014°02'0 0.3
2016-Apr-26 13:29N 67°05' E 014°01'3 3.6
2016-Apr-26 12:33N 67°08' E 013°59'0 0.0
2016-Apr-26 11:33N 67°08' E 013°59'3 2.7
2016-Apr-26 10:33N 67°06' E 013°59'1 0.5
2016-Apr-26 09:33N 67°06' E 014°00'2 2.3
2016-Apr-26 08:33N 67°08' E 013°59'1 1.3
2016-Apr-26 07:33N 67°07' E 013°59'3 3.3
2016-Apr-26 06:33N 67°04' E 014°04'1 0.9
2016-Apr-26 05:30N 67°05' E 014°02'3 3.6
2016-Apr-26 04:33N 67°08' E 013°59'0 0.0
2016-Apr-26 03:33N 67°08' E 013°59'0 0.0
2016-Apr-26 02:33N 67°08' E 013°59'0 0.0
2016-Apr-26 01:33N 67°08' E 013°59'0 0.0
2016-Apr-26 00:33N 67°08' E 013°59'0 0.0
2016-Apr-25 23:33N 67°08' E 013°59'0 0.0
2016-Apr-25 22:33N 67°08' E 013°59'0 0.0
2016-Apr-25 21:33N 67°08' E 013°59'0 0.0
2016-Apr-25 20:33N 67°08' E 013°59'0 0.0
2016-Apr-25 19:33N 67°08' E 013°59'4 4.1
2016-Apr-25 18:31N 67°04' E 014°04'3 2.9
2016-Apr-25 17:33N 67°06' E 013°59'1 1.2
2016-Apr-25 16:33N 67°05' E 013°60'3 3.0
2016-Apr-25 15:33N 67°08' E 013°59'3 3.4
2016-Apr-25 14:33N 67°05' E 014°01'1 1.2
2016-Apr-25 13:33N 67°04' E 014°04'4 4.4
2016-Apr-25 12:33N 67°08' E 013°59'4 4.3
2016-Apr-25 11:33N 67°04' E 014°04'0 0.0
2016-Apr-25 10:33N 67°04' E 014°04'3 2.5
2016-Apr-25 09:33N 67°06' E 013°59'2 2.4
2016-Apr-25 08:33N 67°08' E 013°59'1 1.3
2016-Apr-25 07:33N 67°07' E 013°59'3 3.2
2016-Apr-25 06:33N 67°04' E 014°04'1 0.9
2016-Apr-25 05:30N 67°05' E 014°02'3 3.7
2016-Apr-25 04:33N 67°08' E 013°59'0 0.0
2016-Apr-25 03:33N 67°08' E 013°59'0 0.0
2016-Apr-25 02:33N 67°08' E 013°59'0 0.0
2016-Apr-25 01:33N 67°08' E 013°59'0 0.0
2016-Apr-25 00:33N 67°08' E 013°59'0 0.0
2016-Apr-24 23:33N 67°08' E 013°59'0 0.0
2016-Apr-24 22:33N 67°08' E 013°59'0 0.0
2016-Apr-24 21:33N 67°08' E 013°59'0 0.0
2016-Apr-24 20:33N 67°08' E 013°59'0 0.0
2016-Apr-24 19:33N 67°08' E 013°59'3 1.6
2016-Apr-24 17:26N 67°05' E 014°02'2 2.5
2016-Apr-24 16:33N 67°07' E 013°59'3 2.8
2016-Apr-24 15:30N 67°05' E 014°04'4 4.4
2016-Apr-24 14:33N 67°08' E 013°59'1 1.2
2016-Apr-24 13:33N 67°07' E 013°59'3 0.8
2016-Apr-24 09:15N 67°04' E 014°04'1 1.1
2016-Apr-24 08:22N 67°05' E 014°02'2 2.7
2016-Apr-24 07:33N 67°07' E 013°59'1 0.1
2016-Apr-23 15:33N 67°06' E 013°59'1 1.2
2016-Apr-23 14:32N 67°05' E 014°02'1 0.3
2016-Apr-23 09:33N 67°06' E 013°59'2 2.4
2016-Apr-23 08:33N 67°08' E 013°59'2 1.5
2016-Apr-23 07:33N 67°07' E 013°59'2 2.0
2016-Apr-23 06:29N 67°05' E 014°02'3 3.7
2016-Apr-23 05:33N 67°08' E 013°59'0 0.0
2016-Apr-23 04:33N 67°08' E 013°59'0 0.0
2016-Apr-23 03:33N 67°08' E 013°59'0 0.0
2016-Apr-23 02:33N 67°08' E 013°59'0 0.0
2016-Apr-23 01:33N 67°08' E 013°59'0 0.0
2016-Apr-23 00:33N 67°08' E 013°59'0 0.0
2016-Apr-22 23:33N 67°08' E 013°59'0 0.0
2016-Apr-22 22:33N 67°08' E 013°59'0 0.0
2016-Apr-22 21:33N 67°08' E 013°59'0 0.0
2016-Apr-22 20:33N 67°08' E 013°59'0 0.0
2016-Apr-22 19:33N 67°08' E 013°59'4 3.9
2016-Apr-22 18:32N 67°05' E 014°04'3 3.0
2016-Apr-22 17:33N 67°07' E 013°59'3 3.2
2016-Apr-22 16:33N 67°04' E 014°04'2 1.6
2016-Apr-22 15:33N 67°05' E 014°00'0 0.5
2016-Apr-22 14:33N 67°05' E 014°01'0 0.1
2016-Apr-22 13:33N 67°05' E 014°01'3 3.5
2016-Apr-22 12:33N 67°08' E 013°59'0 0.0
2016-Apr-22 11:33N 67°08' E 013°59'3 3.4
2016-Apr-22 10:33N 67°05' E 014°01'1 1.2
2016-Apr-22 09:33N 67°06' E 013°59'2 2.5
2016-Apr-22 08:33N 67°08' E 013°59'2 1.8
2016-Apr-22 07:33N 67°06' E 013°59'3 2.9
2016-Apr-22 06:33N 67°04' E 014°04'1 0.9
2016-Apr-22 05:29N 67°05' E 014°02'3 3.7
2016-Apr-22 04:33N 67°08' E 013°59'0 0.0
2016-Apr-22 03:33N 67°08' E 013°59'0 0.0
2016-Apr-22 02:33N 67°08' E 013°59'0 0.0
2016-Apr-22 01:33N 67°08' E 013°59'0 0.0
2016-Apr-22 00:33N 67°08' E 013°59'0 0.0
2016-Apr-21 23:33N 67°08' E 013°59'0 0.0
2016-Apr-21 22:33N 67°08' E 013°59'0 0.0
2016-Apr-21 21:33N 67°08' E 013°59'0 0.0
2016-Apr-21 20:33N 67°08' E 013°59'0 0.0
2016-Apr-21 19:33N 67°08' E 013°59'3 2.9
2016-Apr-21 18:24N 67°05' E 014°02'1 1.8
2016-Apr-21 17:34N 67°06' E 013°59'1 0.7
2016-Apr-21 16:33N 67°05' E 013°60'3 2.9
2016-Apr-21 15:33N 67°08' E 013°59'3 3.4
2016-Apr-21 14:32N 67°05' E 014°02'1 0.6
2016-Apr-21 13:33N 67°05' E 014°03'4 3.7
2016-Apr-21 12:33N 67°08' E 013°59'0 0.0
2016-Apr-21 11:33N 67°08' E 013°59'4 3.7
2016-Apr-21 10:32N 67°05' E 014°03'2 2.0
2016-Apr-21 09:33N 67°06' E 013°59'2 2.5
2016-Apr-21 08:33N 67°08' E 013°59'2 1.5
2016-Apr-21 07:33N 67°07' E 013°59'2 1.0
2016-Apr-21 05:30N 67°05' E 014°02'3 3.7
2016-Apr-21 04:33N 67°08' E 013°59'0 0.0
2016-Apr-21 03:33N 67°08' E 013°59'0 0.0
2016-Apr-21 02:33N 67°08' E 013°59'0 0.0
2016-Apr-21 01:33N 67°08' E 013°59'0 0.0
2016-Apr-21 00:33N 67°08' E 013°59'0 0.0
2016-Apr-20 23:33N 67°08' E 013°59'0 0.0
2016-Apr-20 22:33N 67°08' E 013°59'0 0.0
2016-Apr-20 21:33N 67°08' E 013°59'0 0.0
2016-Apr-20 20:33N 67°08' E 013°59'0 0.0
2016-Apr-20 19:33N 67°08' E 013°59'3 3.3
2016-Apr-20 18:31N 67°05' E 014°02'1 1.2
2016-Apr-20 17:33N 67°06' E 013°59'0 0.3
2016-Apr-20 16:33N 67°05' E 013°60'3 2.9
2016-Apr-20 15:33N 67°08' E 013°59'3 3.3
2016-Apr-20 14:33N 67°05' E 014°02'0 0.3
2016-Apr-20 13:32N 67°05' E 014°03'4 3.6
2016-Apr-20 12:33N 67°08' E 013°59'0 0.0
2016-Apr-20 11:33N 67°08' E 013°59'3 2.6
2016-Apr-20 10:33N 67°06' E 013°59'1 0.6
2016-Apr-20 09:33N 67°06' E 013°58'2 2.1
2016-Apr-20 08:33N 67°08' E 013°59'2 1.6
2016-Apr-20 07:33N 67°07' E 013°59'3 3.1
2016-Apr-20 06:33N 67°04' E 014°04'1 0.9
2016-Apr-20 05:31N 67°05' E 014°02'3 3.5
2016-Apr-20 04:33N 67°08' E 013°59'0 0.0
2016-Apr-20 03:33N 67°08' E 013°59'0 0.0
2016-Apr-20 02:33N 67°08' E 013°59'0 0.0
2016-Apr-20 01:33N 67°08' E 013°59'0 0.0
2016-Apr-20 00:33N 67°08' E 013°59'0 0.0
2016-Apr-19 23:33N 67°08' E 013°59'0 0.0
2016-Apr-19 22:33N 67°08' E 013°59'0 0.0
2016-Apr-19 21:33N 67°08' E 013°59'0 0.0
2016-Apr-19 20:33N 67°08' E 013°59'0 0.0
2016-Apr-19 19:33N 67°08' E 013°59'4 3.9
2016-Apr-19 18:33N 67°05' E 014°04'3 2.6
2016-Apr-19 17:33N 67°06' E 013°58'1 1.0
2016-Apr-19 16:33N 67°05' E 013°59'3 2.8
2016-Apr-19 15:33N 67°08' E 013°59'3 3.4
2016-Apr-19 14:34N 67°05' E 014°02'0 0.4
2016-Apr-19 13:31N 67°05' E 014°03'4 3.7
2016-Apr-19 12:33N 67°08' E 013°59'0 0.0
2016-Apr-19 11:33N 67°08' E 013°59'3 2.6
2016-Apr-19 10:33N 67°06' E 013°59'1 0.7
2016-Apr-19 09:33N 67°06' E 014°00'2 2.2
2016-Apr-19 08:33N 67°08' E 013°59'3 3.1
2016-Apr-19 07:32N 67°05' E 014°00'2 1.6
2016-Apr-19 06:33N 67°04' E 014°04'1 0.9
2016-Apr-19 05:29N 67°05' E 014°02'3 3.7
2016-Apr-19 04:33N 67°08' E 013°59'0 0.0
2016-Apr-19 03:33N 67°08' E 013°59'0 0.0
2016-Apr-19 02:33N 67°08' E 013°59'0 0.0
2016-Apr-19 01:33N 67°08' E 013°59'0 0.0
2016-Apr-19 00:33N 67°08' E 013°59'0 0.0
2016-Apr-18 23:33N 67°08' E 013°59'  
Track history (hours):
 
Tides and Currents Weather Stations Pressure Air Temp Water Temp Dewpoint Dewpoint Depression Visibility Wind Speed Wind Dir Waves Ship Positions

Gildeskaal

Last reported at 2016-Apr-28 23:33 UTC. Time now 2016-Apr-28 23:54 UTC.
Position N 67°08' E 013°59'.

Length 52 m; draft 3.2 m.

Type: Ship. MMSI: 259680000.

Date/timePositionNaut miles runAvg speedWind from/ knotsBaromVisibWave heightAir tempDewpointWater temp
2016-Apr-28 23:33N 67°08' E 013°59'0 0.0
2016-Apr-28 22:33N 67°08' E 013°59'0 0.0
2016-Apr-28 21:33N 67°08' E 013°59'0 0.0
2016-Apr-28 20:33N 67°08' E 013°59'0 0.0
2016-Apr-28 19:33N 67°08' E 013°59'4 4.0
2016-Apr-28 18:32N 67°05' E 014°04'3 2.9
2016-Apr-28 17:33N 67°07' E 013°59'2 1.5
2016-Apr-28 16:33N 67°05' E 013°60'3 2.9
2016-Apr-28 15:33N 67°08' E 013°59'3 3.3
2016-Apr-28 14:31N 67°05' E 014°02'0 0.1
2016-Apr-28 13:31N 67°05' E 014°02'4 3.6
2016-Apr-28 12:33N 67°08' E 013°59'0 0.0
2016-Apr-28 11:33N 67°08' E 013°59'3 3.1
2016-Apr-28 10:32N 67°05' E 014°01'1 1.2
2016-Apr-28 09:33N 67°06' E 013°59'2 2.3
2016-Apr-28 08:33N 67°08' E 013°59'2 1.7
2016-Apr-28 07:33N 67°06' E 013°59'3 3.0
2016-Apr-28 06:33N 67°04' E 014°04'1 0.9
2016-Apr-28 05:30N 67°05' E 014°02'3 3.6
2016-Apr-28 04:33N 67°08' E 013°59'0 0.0
2016-Apr-28 03:33N 67°08' E 013°59'0 0.0
2016-Apr-28 02:33N 67°08' E 013°59'0 0.0
2016-Apr-28 01:33N 67°08' E 013°59'0 0.0
2016-Apr-28 00:33N 67°08' E 013°59'0 0.0
2016-Apr-27 23:33N 67°08' E 013°59'0 0.0
2016-Apr-27 22:33N 67°08' E 013°59'0 0.0
2016-Apr-27 21:33N 67°08' E 013°59'0 0.0
2016-Apr-27 20:33N 67°08' E 013°59'0 0.0
2016-Apr-27 19:33N 67°08' E 013°59'4 4.1
2016-Apr-27 18:32N 67°05' E 014°04'3 3.5
2016-Apr-27 17:33N 67°07' E 013°59'2 2.1
2016-Apr-27 16:33N 67°05' E 013°60'3 3.0
2016-Apr-27 15:33N 67°08' E 013°59'3 3.4
2016-Apr-27 14:32N 67°05' E 014°02'0 0.5
2016-Apr-27 13:34N 67°05' E 014°03'4 3.6
2016-Apr-27 12:33N 67°08' E 013°59'0 0.0
2016-Apr-27 11:33N 67°08' E 013°59'3 2.5
2016-Apr-27 10:33N 67°06' E 013°59'0 0.4
2016-Apr-27 09:33N 67°06' E 013°59'2 2.2
2016-Apr-27 08:33N 67°08' E 013°59'3 2.8
2016-Apr-27 07:32N 67°05' E 013°60'2 2.0
2016-Apr-27 06:33N 67°04' E 014°04'1 0.9
2016-Apr-27 05:30N 67°05' E 014°02'3 3.6
2016-Apr-27 04:33N 67°08' E 013°59'0 0.0
2016-Apr-27 03:33N 67°08' E 013°59'0 0.0
2016-Apr-27 02:33N 67°08' E 013°59'0 0.0
2016-Apr-27 01:33N 67°08' E 013°59'0 0.0
2016-Apr-27 00:33N 67°08' E 013°59'0 0.0
2016-Apr-26 23:33N 67°08' E 013°59'0 0.0
2016-Apr-26 22:33N 67°08' E 013°59'0 0.0
2016-Apr-26 21:33N 67°08' E 013°59'0 0.0
2016-Apr-26 20:33N 67°08' E 013°59'0 0.0
2016-Apr-26 19:33N 67°08' E 013°59'3 3.2
2016-Apr-26 18:28N 67°05' E 014°02'2 2.2
2016-Apr-26 17:33N 67°06' E 013°59'1 1.3
2016-Apr-26 16:33N 67°05' E 014°00'3 2.9
2016-Apr-26 15:33N 67°08' E 013°59'3 3.4
2016-Apr-26 14:33N 67°05' E 014°02'0 0.3
2016-Apr-26 13:29N 67°05' E 014°01'3 3.6
2016-Apr-26 12:33N 67°08' E 013°59'0 0.0
2016-Apr-26 11:33N 67°08' E 013°59'3 2.7
2016-Apr-26 10:33N 67°06' E 013°59'1 0.5
2016-Apr-26 09:33N 67°06' E 014°00'2 2.3
2016-Apr-26 08:33N 67°08' E 013°59'1 1.3
2016-Apr-26 07:33N 67°07' E 013°59'3 3.3
2016-Apr-26 06:33N 67°04' E 014°04'1 0.9
2016-Apr-26 05:30N 67°05' E 014°02'3 3.6
2016-Apr-26 04:33N 67°08' E 013°59'0 0.0
2016-Apr-26 03:33N 67°08' E 013°59'0 0.0
2016-Apr-26 02:33N 67°08' E 013°59'0 0.0
2016-Apr-26 01:33N 67°08' E 013°59'0 0.0
2016-Apr-26 00:33N 67°08' E 013°59'0 0.0
2016-Apr-25 23:33N 67°08' E 013°59'0 0.0
2016-Apr-25 22:33N 67°08' E 013°59'0 0.0
2016-Apr-25 21:33N 67°08' E 013°59'0 0.0
2016-Apr-25 20:33N 67°08' E 013°59'0 0.0
2016-Apr-25 19:33N 67°08' E 013°59'4 4.1
2016-Apr-25 18:31N 67°04' E 014°04'3 2.9
2016-Apr-25 17:33N 67°06' E 013°59'1 1.2
2016-Apr-25 16:33N 67°05' E 013°60'3 3.0
2016-Apr-25 15:33N 67°08' E 013°59'3 3.4
2016-Apr-25 14:33N 67°05' E 014°01'1 1.2
2016-Apr-25 13:33N 67°04' E 014°04'4 4.4
2016-Apr-25 12:33N 67°08' E 013°59'4 4.3
2016-Apr-25 11:33N 67°04' E 014°04'0 0.0
2016-Apr-25 10:33N 67°04' E 014°04'3 2.5
2016-Apr-25 09:33N 67°06' E 013°59'2 2.4
2016-Apr-25 08:33N 67°08' E 013°59'1 1.3
2016-Apr-25 07:33N 67°07' E 013°59'3 3.2
2016-Apr-25 06:33N 67°04' E 014°04'1 0.9
2016-Apr-25 05:30N 67°05' E 014°02'3 3.7
2016-Apr-25 04:33N 67°08' E 013°59'0 0.0
2016-Apr-25 03:33N 67°08' E 013°59'0 0.0
2016-Apr-25 02:33N 67°08' E 013°59'0 0.0
2016-Apr-25 01:33N 67°08' E 013°59'0 0.0
2016-Apr-25 00:33N 67°08' E 013°59'0 0.0
2016-Apr-24 23:33N 67°08' E 013°59'0 0.0
2016-Apr-24 22:33N 67°08' E 013°59'0 0.0
2016-Apr-24 21:33N 67°08' E 013°59'0 0.0
2016-Apr-24 20:33N 67°08' E 013°59'0 0.0
2016-Apr-24 19:33N 67°08' E 013°59'3 1.6
2016-Apr-24 17:26N 67°05' E 014°02'2 2.5
2016-Apr-24 16:33N 67°07' E 013°59'3 2.8
2016-Apr-24 15:30N 67°05' E 014°04'4 4.4
2016-Apr-24 14:33N 67°08' E 013°59'1 1.2
2016-Apr-24 13:33N 67°07' E 013°59'3 0.8
2016-Apr-24 09:15N 67°04' E 014°04'1 1.1
2016-Apr-24 08:22N 67°05' E 014°02'2 2.7
2016-Apr-24 07:33N 67°07' E 013°59'1 0.1
2016-Apr-23 15:33N 67°06' E 013°59'1 1.2
2016-Apr-23 14:32N 67°05' E 014°02'1 0.3
2016-Apr-23 09:33N 67°06' E 013°59'2 2.4
2016-Apr-23 08:33N 67°08' E 013°59'2 1.5
2016-Apr-23 07:33N 67°07' E 013°59'2 2.0
2016-Apr-23 06:29N 67°05' E 014°02'3 3.7
2016-Apr-23 05:33N 67°08' E 013°59'0 0.0
2016-Apr-23 04:33N 67°08' E 013°59'0 0.0
2016-Apr-23 03:33N 67°08' E 013°59'0 0.0
2016-Apr-23 02:33N 67°08' E 013°59'0 0.0
2016-Apr-23 01:33N 67°08' E 013°59'0 0.0
2016-Apr-23 00:33N 67°08' E 013°59'0 0.0
2016-Apr-22 23:33N 67°08' E 013°59'0 0.0
2016-Apr-22 22:33N 67°08' E 013°59'0 0.0
2016-Apr-22 21:33N 67°08' E 013°59'0 0.0
2016-Apr-22 20:33N 67°08' E 013°59'0 0.0
2016-Apr-22 19:33N 67°08' E 013°59'4 3.9
2016-Apr-22 18:32N 67°05' E 014°04'3 3.0
2016-Apr-22 17:33N 67°07' E 013°59'3 3.2
2016-Apr-22 16:33N 67°04' E 014°04'2 1.6
2016-Apr-22 15:33N 67°05' E 014°00'0 0.5
2016-Apr-22 14:33N 67°05' E 014°01'0 0.1
2016-Apr-22 13:33N 67°05' E 014°01'3 3.5
2016-Apr-22 12:33N 67°08' E 013°59'0 0.0
2016-Apr-22 11:33N 67°08' E 013°59'3 3.4
2016-Apr-22 10:33N 67°05' E 014°01'1 1.2
2016-Apr-22 09:33N 67°06' E 013°59'2 2.5
2016-Apr-22 08:33N 67°08' E 013°59'2 1.8
2016-Apr-22 07:33N 67°06' E 013°59'3 2.9
2016-Apr-22 06:33N 67°04' E 014°04'1 0.9
2016-Apr-22 05:29N 67°05' E 014°02'3 3.7
2016-Apr-22 04:33N 67°08' E 013°59'0 0.0
2016-Apr-22 03:33N 67°08' E 013°59'0 0.0
2016-Apr-22 02:33N 67°08' E 013°59'0 0.0
2016-Apr-22 01:33N 67°08' E 013°59'0 0.0
2016-Apr-22 00:33N 67°08' E 013°59'0 0.0
2016-Apr-21 23:33N 67°08' E 013°59'0 0.0
2016-Apr-21 22:33N 67°08' E 013°59'0 0.0
2016-Apr-21 21:33N 67°08' E 013°59'0 0.0
2016-Apr-21 20:33N 67°08' E 013°59'0 0.0
2016-Apr-21 19:33N 67°08' E 013°59'3 2.9
2016-Apr-21 18:24N 67°05' E 014°02'1 1.8
2016-Apr-21 17:34N 67°06' E 013°59'1 0.7
2016-Apr-21 16:33N 67°05' E 013°60'3 2.9
2016-Apr-21 15:33N 67°08' E 013°59'3 3.4
2016-Apr-21 14:32N 67°05' E 014°02'1 0.6
2016-Apr-21 13:33N 67°05' E 014°03'4 3.7
2016-Apr-21 12:33N 67°08' E 013°59'0 0.0
2016-Apr-21 11:33N 67°08' E 013°59'4 3.7
2016-Apr-21 10:32N 67°05' E 014°03'2 2.0
2016-Apr-21 09:33N 67°06' E 013°59'2 2.5
2016-Apr-21 08:33N 67°08' E 013°59'2 1.5
2016-Apr-21 07:33N 67°07' E 013°59'2 1.0
2016-Apr-21 05:30N 67°05' E 014°02'3 3.7
2016-Apr-21 04:33N 67°08' E 013°59'0 0.0
2016-Apr-21 03:33N 67°08' E 013°59'0 0.0
2016-Apr-21 02:33N 67°08' E 013°59'0 0.0
2016-Apr-21 01:33N 67°08' E 013°59'0 0.0
2016-Apr-21 00:33N 67°08' E 013°59'0 0.0
2016-Apr-20 23:33N 67°08' E 013°59'0 0.0
2016-Apr-20 22:33N 67°08' E 013°59'0 0.0
2016-Apr-20 21:33N 67°08' E 013°59'0 0.0
2016-Apr-20 20:33N 67°08' E 013°59'0 0.0
2016-Apr-20 19:33N 67°08' E 013°59'3 3.3
2016-Apr-20 18:31N 67°05' E 014°02'1 1.2
2016-Apr-20 17:33N 67°06' E 013°59'0 0.3
2016-Apr-20 16:33N 67°05' E 013°60'3 2.9
2016-Apr-20 15:33N 67°08' E 013°59'3 3.3
2016-Apr-20 14:33N 67°05' E 014°02'0 0.3
2016-Apr-20 13:32N 67°05' E 014°03'4 3.6
2016-Apr-20 12:33N 67°08' E 013°59'0 0.0
2016-Apr-20 11:33N 67°08' E 013°59'3 2.6
2016-Apr-20 10:33N 67°06' E 013°59'1 0.6
2016-Apr-20 09:33N 67°06' E 013°58'2 2.1
2016-Apr-20 08:33N 67°08' E 013°59'2 1.6
2016-Apr-20 07:33N 67°07' E 013°59'3 3.1
2016-Apr-20 06:33N 67°04' E 014°04'1 0.9
2016-Apr-20 05:31N 67°05' E 014°02'3 3.5
2016-Apr-20 04:33N 67°08' E 013°59'0 0.0
2016-Apr-20 03:33N 67°08' E 013°59'0 0.0
2016-Apr-20 02:33N 67°08' E 013°59'0 0.0
2016-Apr-20 01:33N 67°08' E 013°59'0 0.0
2016-Apr-20 00:33N 67°08' E 013°59'0 0.0
2016-Apr-19 23:33N 67°08' E 013°59'0 0.0
2016-Apr-19 22:33N 67°08' E 013°59'0 0.0
2016-Apr-19 21:33N 67°08' E 013°59'0 0.0
2016-Apr-19 20:33N 67°08' E 013°59'0 0.0
2016-Apr-19 19:33N 67°08' E 013°59'4 3.9
2016-Apr-19 18:33N 67°05' E 014°04'3 2.6
2016-Apr-19 17:33N 67°06' E 013°58'1 1.0
2016-Apr-19 16:33N 67°05' E 013°59'3 2.8
2016-Apr-19 15:33N 67°08' E 013°59'3 3.4
2016-Apr-19 14:34N 67°05' E 014°02'0 0.4
2016-Apr-19 13:31N 67°05' E 014°03'4 3.7
2016-Apr-19 12:33N 67°08' E 013°59'0 0.0
2016-Apr-19 11:33N 67°08' E 013°59'3 2.6
2016-Apr-19 10:33N 67°06' E 013°59'1 0.7
2016-Apr-19 09:33N 67°06' E 014°00'2 2.2
2016-Apr-19 08:33N 67°08' E 013°59'3 3.1
2016-Apr-19 07:32N 67°05' E 014°00'2 1.6
2016-Apr-19 06:33N 67°04' E 014°04'1 0.9
2016-Apr-19 05:29N 67°05' E 014°02'3 3.7
2016-Apr-19 04:33N 67°08' E 013°59'0 0.0
2016-Apr-19 03:33N 67°08' E 013°59'0 0.0
2016-Apr-19 02:33N 67°08' E 013°59'0 0.0
2016-Apr-19 01:33N 67°08' E 013°59'0 0.0
2016-Apr-19 00:33N 67°08' E 013°59'0 0.0
2016-Apr-18 23:33N 67°08' E 013°59'  

Dump ship's entire track history